Time,TemperatureF,DewpointF,PressureIn,WindDirection,WindDirectionDegrees,WindSpeedMPH,WindSpeedGustMPH,Humidity,HourlyPrecipIn,Conditions,Clouds,dailyrainin,SoftwareType,DateUTC
2013-07-02 00:01:00,69.8,69.8,30.12,WSW,242,7.0,11.0,100,0.00,,,0.18,meteohub,2013-07-02 04:01:00,
2013-07-02 00:02:00,69.8,69.8,30.12,SW,214,4.0,11.0,100,0.00,,,0.18,meteohub,2013-07-02 04:02:00,
2013-07-02 00:07:00,69.8,69.8,30.12,SW,218,5.0,10.0,100,0.00,,,0.00,meteohub,2013-07-02 04:07:00,
2013-07-02 00:12:00,69.8,69.8,30.12,SW,215,4.0,9.0,100,0.00,,,0.00,meteohub,2013-07-02 04:12:00,
2013-07-02 00:17:00,69.6,69.6,30.12,SSW,212,7.0,9.0,100,0.00,,,0.00,meteohub,2013-07-02 04:17:00,
2013-07-02 00:22:00,69.6,69.6,30.12,SSW,210,7.0,10.0,100,0.00,,,0.00,meteohub,2013-07-02 04:22:00,
2013-07-02 00:27:00,69.6,69.6,30.12,SW,224,4.0,10.0,100,0.00,,,0.00,meteohub,2013-07-02 04:27:00,
2013-07-02 00:32:00,69.6,69.6,30.12,SSW,212,4.0,10.0,100,0.00,,,0.00,meteohub,2013-07-02 04:32:00,
2013-07-02 00:37:00,69.6,69.6,30.12,SSW,194,4.0,9.0,100,0.00,,,0.00,meteohub,2013-07-02 04:37:00,
2013-07-02 00:42:00,69.6,69.6,30.13,SW,220,4.0,9.0,100,0.00,,,0.00,meteohub,2013-07-02 04:42:00,
2013-07-02 00:47:00,69.6,69.6,30.12,SSW,208,6.0,9.0,100,0.00,,,0.00,meteohub,2013-07-02 04:47:00,
2013-07-02 00:52:00,69.6,69.6,30.12,WSW,242,4.0,11.0,100,0.00,,,0.00,meteohub,2013-07-02 04:52:00,
2013-07-02 00:57:00,69.6,69.6,30.12,SW,222,3.0,11.0,100,0.00,,,0.00,meteohub,2013-07-02 04:57:00,
2013-07-02 01:02:00,69.6,69.6,30.13,SW,232,7.0,9.0,100,0.00,,,0.00,meteohub,2013-07-02 05:02:00,
2013-07-02 01:07:00,69.6,69.6,30.13,SW,218,5.0,9.0,100,0.00,,,0.00,meteohub,2013-07-02 05:07:00,
2013-07-02 01:12:00,69.6,69.6,30.13,SW,230,7.0,9.0,100,0.00,,,0.00,meteohub,2013-07-02 05:12:00,
2013-07-02 01:17:00,69.6,69.6,30.13,SSW,212,6.0,9.0,100,0.00,,,0.00,meteohub,2013-07-02 05:17:00,
2013-07-02 01:22:00,69.8,69.8,30.13,SW,229,7.0,8.0,100,0.00,,,0.00,meteohub,2013-07-02 05:22:00,
2013-07-02 01:27:00,70.0,70.0,30.13,SW,226,7.0,10.0,100,0.00,,,0.00,meteohub,2013-07-02 05:27:00,
2013-07-02 01:32:00,70.2,70.2,30.13,SSW,201,7.0,14.0,100,0.00,,,0.00,meteohub,2013-07-02 05:32:00,
2013-07-02 01:37:00,70.3,70.3,30.13,SSW,201,10.0,14.0,100,0.00,,,0.00,meteohub,2013-07-02 05:37:00,
2013-07-02 01:42:00,70.3,70.3,30.13,SSW,211,9.0,14.0,100,0.00,,,0.00,meteohub,2013-07-02 05:42:00,
2013-07-02 01:47:00,70.2,70.2,30.13,SW,215,7.0,14.0,100,0.00,,,0.00,meteohub,2013-07-02 05:47:00,
2013-07-02 01:52:00,70.2,70.2,30.13,SW,219,5.0,14.0,100,0.00,,,0.00,meteohub,2013-07-02 05:52:00,
2013-07-02 01:57:00,70.2,70.2,30.13,SW,235,4.0,12.0,100,0.00,,,0.00,meteohub,2013-07-02 05:57:00,
2013-07-02 02:02:00,70.0,70.0,30.13,SW,218,11.0,11.0,100,0.00,,,0.00,meteohub,2013-07-02 06:02:00,
2013-07-02 02:07:00,70.0,70.0,30.13,SW,222,8.0,11.0,100,0.00,,,0.00,meteohub,2013-07-02 06:07:00,
2013-07-02 02:12:00,70.0,70.0,30.13,SW,215,6.0,11.0,100,0.00,,,0.00,meteohub,2013-07-02 06:12:00,
2013-07-02 02:17:00,70.0,70.0,30.13,SW,220,6.0,11.0,100,0.00,,,0.00,meteohub,2013-07-02 06:17:00,
2013-07-02 02:22:00,70.0,70.0,30.13,SSW,197,3.0,11.0,100,0.00,,,0.00,meteohub,2013-07-02 06:22:00,
2013-07-02 02:27:00,69.8,69.8,30.13,SW,228,6.0,9.0,100,0.00,,,0.00,meteohub,2013-07-02 06:27:00,
2013-07-02 02:32:00,69.6,69.6,30.13,SSW,200,6.0,10.0,100,0.00,,,0.00,meteohub,2013-07-02 06:32:00,
2013-07-02 02:37:00,69.6,69.6,30.13,WSW,240,7.0,10.0,100,0.00,,,0.00,meteohub,2013-07-02 06:37:00,
2013-07-02 02:42:00,69.6,69.6,30.13,SW,222,5.0,13.0,100,0.00,,,0.00,meteohub,2013-07-02 06:42:00,
2013-07-02 02:47:00,69.6,69.6,30.13,SW,232,7.0,13.0,100,0.00,,,0.00,meteohub,2013-07-02 06:47:00,
2013-07-02 02:52:00,69.6,69.6,30.12,SW,222,11.0,13.0,100,0.00,,,0.00,meteohub,2013-07-02 06:52:00,
2013-07-02 02:57:00,69.6,69.6,30.12,SSW,201,6.0,11.0,100,0.00,,,0.00,meteohub,2013-07-02 06:57:00,
2013-07-02 03:02:00,69.6,69.6,30.12,SW,232,4.0,11.0,100,0.00,,,0.00,meteohub,2013-07-02 07:02:00,
2013-07-02 03:07:00,69.6,69.6,30.12,SW,219,3.0,11.0,100,0.00,,,0.00,meteohub,2013-07-02 07:07:00,
2013-07-02 03:12:00,69.6,69.6,30.12,SSW,212,5.0,11.0,100,0.00,,,0.00,meteohub,2013-07-02 07:12:00,
2013-07-02 03:17:00,69.6,69.6,30.12,SW,221,6.0,11.0,100,0.00,,,0.00,meteohub,2013-07-02 07:17:00,
2013-07-02 03:22:00,69.8,69.8,30.12,SW,236,7.0,11.0,100,0.00,,,0.00,meteohub,2013-07-02 07:22:00,
2013-07-02 03:27:00,69.8,69.8,30.13,SSW,212,4.0,11.0,100,0.00,,,0.00,meteohub,2013-07-02 07:27:00,
2013-07-02 03:32:00,69.8,69.8,30.13,WSW,248,6.0,11.0,100,0.00,,,0.00,meteohub,2013-07-02 07:32:00,
2013-07-02 03:37:00,69.8,69.8,30.13,WSW,237,8.0,10.0,100,0.00,,,0.00,meteohub,2013-07-02 07:37:00,
2013-07-02 03:42:00,70.0,70.0,30.13,WSW,255,8.0,10.0,100,0.00,,,0.00,meteohub,2013-07-02 07:42:00,
2013-07-02 03:47:00,70.0,70.0,30.13,SSW,197,7.0,13.0,100,0.00,,,0.00,meteohub,2013-07-02 07:47:00,
2013-07-02 03:52:00,70.0,70.0,30.13,SSW,210,6.0,13.0,100,0.00,,,0.00,meteohub,2013-07-02 07:52:00,
2013-07-02 03:57:00,70.0,70.0,30.13,SSW,212,5.0,13.0,100,0.00,,,0.00,meteohub,2013-07-02 07:57:00,
2013-07-02 04:02:00,69.8,69.8,30.13,SW,219,7.0,12.0,100,0.00,,,0.00,meteohub,2013-07-02 08:02:00,
2013-07-02 04:07:00,69.6,69.6,30.14,SW,228,4.0,9.0,100,0.00,,,0.00,meteohub,2013-07-02 08:07:00,
2013-07-02 04:12:00,69.6,69.6,30.14,SW,222,5.0,9.0,100,0.00,,,0.00,meteohub,2013-07-02 08:12:00,
2013-07-02 04:17:00,69.6,69.6,30.14,West,269,3.0,9.0,100,0.00,,,0.00,meteohub,2013-07-02 08:17:00,
2013-07-02 04:22:00,69.6,69.6,30.14,SSW,207,2.0,9.0,100,0.00,,,0.00,meteohub,2013-07-02 08:22:00,
2013-07-02 04:26:00,69.6,69.6,30.14,SW,214,6.0,11.0,100,0.00,,,0.00,meteohub,2013-07-02 08:26:00,
2013-07-02 04:32:00,69.6,69.6,30.14,SW,229,4.0,11.0,100,0.00,,,0.00,meteohub,2013-07-02 08:32:00,
2013-07-02 04:37:00,69.8,69.8,30.14,SSW,205,5.0,10.0,100,0.00,,,0.00,meteohub,2013-07-02 08:37:00,
2013-07-02 04:42:00,70.0,70.0,30.14,WSW,256,3.0,13.0,100,0.00,,,0.00,meteohub,2013-07-02 08:42:00,
2013-07-02 04:46:00,70.0,70.0,30.14,SW,230,4.0,13.0,100,0.00,,,0.00,meteohub,2013-07-02 08:46:00,
2013-07-02 04:51:00,70.2,70.2,30.14,SSW,212,4.0,18.0,100,0.00,,,0.00,meteohub,2013-07-02 08:51:00,
2013-07-02 04:56:00,70.2,70.2,30.14,WSW,240,7.0,18.0,100,0.00,,,0.00,meteohub,2013-07-02 08:56:00,
2013-07-02 05:01:00,70.2,70.2,30.14,SW,222,8.0,18.0,100,0.00,,,0.00,meteohub,2013-07-02 09:01:00,
2013-07-02 05:06:00,70.2,70.2,30.14,South,188,7.0,13.0,100,0.00,,,0.00,meteohub,2013-07-02 09:06:00,
2013-07-02 05:11:00,70.2,70.2,30.14,WSW,241,7.0,10.0,100,0.00,,,0.00,meteohub,2013-07-02 09:11:00,
2013-07-02 05:16:00,70.2,70.2,30.14,SW,214,5.0,10.0,100,0.00,,,0.00,meteohub,2013-07-02 09:16:00,
2013-07-02 05:21:00,70.2,70.2,30.15,SW,229,7.0,10.0,100,0.00,,,0.00,meteohub,2013-07-02 09:21:00,
2013-07-02 05:26:00,70.2,70.2,30.15,SSW,212,6.0,9.0,100,0.00,,,0.00,meteohub,2013-07-02 09:26:00,
2013-07-02 05:32:00,70.5,70.5,30.15,SW,221,13.0,13.0,100,0.00,,,0.00,meteohub,2013-07-02 09:32:00,
2013-07-02 05:37:00,70.5,70.5,30.15,SW,219,15.0,15.0,100,0.00,,,0.00,meteohub,2013-07-02 09:37:00,
2013-07-02 05:42:00,70.5,70.5,30.15,SSW,212,17.0,18.0,100,0.00,,,0.00,meteohub,2013-07-02 09:42:00,
2013-07-02 05:47:00,70.2,70.2,30.16,SSW,198,15.0,18.0,100,0.00,,,0.00,meteohub,2013-07-02 09:47:00,
2013-07-02 05:52:00,70.0,70.0,30.16,SSW,207,11.0,18.0,100,0.01,,,0.01,meteohub,2013-07-02 09:52:00,
2013-07-02 05:57:00,70.0,70.0,30.16,SSW,207,11.0,17.0,100,0.02,,,0.02,meteohub,2013-07-02 09:57:00,
2013-07-02 06:02:00,69.8,69.8,30.16,SW,217,10.0,18.0,100,0.03,,,0.03,meteohub,2013-07-02 10:02:00,
2013-07-02 06:07:00,69.8,69.8,30.16,SSW,211,13.0,18.0,100,0.03,,,0.03,meteohub,2013-07-02 10:07:00,
2013-07-02 06:12:00,70.0,70.0,30.16,SW,215,10.0,18.0,100,0.03,,,0.03,meteohub,2013-07-02 10:12:00,
2013-07-02 06:17:00,70.0,70.0,30.15,South,184,11.0,17.0,100,0.03,,,0.03,meteohub,2013-07-02 10:17:00,
2013-07-02 06:22:00,70.0,70.0,30.16,SSW,201,10.0,17.0,100,0.04,,,0.04,meteohub,2013-07-02 10:22:00,
2013-07-02 06:27:00,70.0,70.0,30.16,SW,235,8.0,17.0,100,0.04,,,0.04,meteohub,2013-07-02 10:27:00,
2013-07-02 06:32:00,70.2,70.2,30.16,SW,224,5.0,17.0,100,0.04,,,0.04,meteohub,2013-07-02 10:32:00,
2013-07-02 06:37:00,70.3,70.3,30.16,SW,221,6.0,12.0,100,0.04,,,0.04,meteohub,2013-07-02 10:37:00,
2013-07-02 06:42:00,70.3,70.3,30.16,SSW,193,11.0,13.0,100,0.04,,,0.04,meteohub,2013-07-02 10:42:00,
2013-07-02 06:47:00,70.5,70.5,30.16,SW,222,15.0,17.0,100,0.04,,,0.04,meteohub,2013-07-02 10:47:00,
2013-07-02 06:52:00,70.9,70.9,30.16,SW,221,16.0,17.0,100,0.03,,,0.04,meteohub,2013-07-02 10:52:00,
2013-07-02 06:57:00,70.9,70.9,30.17,SW,229,6.0,19.0,100,0.02,,,0.04,meteohub,2013-07-02 10:57:00,
2013-07-02 07:02:00,70.9,70.9,30.17,SW,225,9.0,19.0,100,0.01,,,0.04,meteohub,2013-07-02 11:02:00,
2013-07-02 07:07:00,70.9,70.9,30.17,SW,215,7.0,19.0,100,0.01,,,0.04,meteohub,2013-07-02 11:07:00,
2013-07-02 07:12:00,70.9,70.9,30.17,West,277,5.0,16.0,100,0.01,,,0.04,meteohub,2013-07-02 11:12:00,
2013-07-02 07:17:00,70.7,70.7,30.17,SSW,195,10.0,14.0,100,0.01,,,0.04,meteohub,2013-07-02 11:17:00,
2013-07-02 07:22:00,70.5,70.5,30.17,SW,217,9.0,13.0,100,0.00,,,0.04,meteohub,2013-07-02 11:22:00,
2013-07-02 07:27:00,70.5,70.5,30.17,SW,214,9.0,15.0,100,0.00,,,0.04,meteohub,2013-07-02 11:27:00,
2013-07-02 07:32:00,70.3,70.3,30.17,SSW,204,8.0,15.0,100,0.00,,,0.04,meteohub,2013-07-02 11:32:00,
2013-07-02 07:37:00,70.3,70.3,30.17,SW,215,10.0,15.0,100,0.00,,,0.04,meteohub,2013-07-02 11:37:00,
2013-07-02 07:41:00,70.5,70.5,30.17,SSW,207,4.0,15.0,100,0.00,,,0.04,meteohub,2013-07-02 11:41:00,
2013-07-02 07:46:00,70.5,70.5,30.17,SW,217,8.0,15.0,100,0.00,,,0.04,meteohub,2013-07-02 11:46:00,
2013-07-02 07:52:00,70.5,70.5,30.17,SW,214,10.0,12.0,100,0.00,,,0.04,meteohub,2013-07-02 11:52:00,
2013-07-02 07:57:00,70.7,70.7,30.17,SSW,204,9.0,13.0,100,0.00,,,0.04,meteohub,2013-07-02 11:57:00,
2013-07-02 08:02:00,70.7,70.7,30.17,SSW,212,11.0,13.0,100,0.00,,,0.04,meteohub,2013-07-02 12:02:00,
2013-07-02 08:07:00,70.5,70.5,30.17,SSW,195,6.0,13.0,100,0.00,,,0.04,meteohub,2013-07-02 12:07:00,
2013-07-02 08:12:00,70.2,70.2,30.17,SW,215,10.0,13.0,100,0.00,,,0.04,meteohub,2013-07-02 12:12:00,
2013-07-02 08:17:00,70.3,70.3,30.17,SW,231,7.0,13.0,100,0.00,,,0.04,meteohub,2013-07-02 12:17:00,
2013-07-02 08:22:00,70.3,70.3,30.17,SW,215,11.0,13.0,100,0.00,,,0.04,meteohub,2013-07-02 12:22:00,
2013-07-02 08:27:00,70.3,70.3,30.17,SW,232,10.0,14.0,100,0.00,,,0.04,meteohub,2013-07-02 12:27:00,
2013-07-02 08:32:00,70.3,70.3,30.17,SW,219,10.0,14.0,100,0.00,,,0.04,meteohub,2013-07-02 12:32:00,
2013-07-02 08:37:00,70.5,70.5,30.17,SW,217,11.0,14.0,100,0.00,,,0.04,meteohub,2013-07-02 12:37:00,
2013-07-02 08:42:00,70.5,70.5,30.18,South,186,7.0,14.0,100,0.00,,,0.04,meteohub,2013-07-02 12:42:00,
2013-07-02 08:47:00,70.5,70.5,30.18,SSW,210,9.0,14.0,100,0.00,,,0.04,meteohub,2013-07-02 12:47:00,
2013-07-02 08:52:00,70.3,70.3,30.18,SSW,210,7.0,14.0,100,0.00,,,0.04,meteohub,2013-07-02 12:52:00,
2013-07-02 08:57:00,70.3,70.3,30.18,SW,218,10.0,15.0,100,0.00,,,0.04,meteohub,2013-07-02 12:57:00,
2013-07-02 09:02:00,70.5,70.5,30.18,SW,232,9.0,15.0,100,0.00,,,0.04,meteohub,2013-07-02 13:02:00,
2013-07-02 09:07:00,70.5,70.5,30.18,SSW,200,10.0,14.0,100,0.00,,,0.04,meteohub,2013-07-02 13:07:00,
2013-07-02 09:12:00,70.5,70.5,30.18,SSW,205,9.0,15.0,100,0.00,,,0.04,meteohub,2013-07-02 13:12:00,
2013-07-02 09:17:00,70.5,70.5,30.18,SW,221,12.0,15.0,100,0.00,,,0.04,meteohub,2013-07-02 13:17:00,
2013-07-02 09:22:00,70.5,70.5,30.18,SSW,201,9.0,15.0,100,0.00,,,0.04,meteohub,2013-07-02 13:22:00,
2013-07-02 09:27:00,70.5,70.5,30.18,SSW,207,7.0,15.0,100,0.00,,,0.04,meteohub,2013-07-02 13:27:00,
2013-07-02 09:32:00,70.9,70.9,30.18,SSW,197,10.0,14.0,100,0.00,,,0.04,meteohub,2013-07-02 13:32:00,
2013-07-02 09:37:00,71.1,71.1,30.18,SSW,200,8.0,14.0,100,0.00,,,0.04,meteohub,2013-07-02 13:37:00,
2013-07-02 09:42:00,70.9,70.9,30.18,SSW,197,8.0,15.0,100,0.00,,,0.04,meteohub,2013-07-02 13:42:00,
2013-07-02 09:47:00,70.9,70.9,30.18,SW,225,9.0,15.0,100,0.00,,,0.04,meteohub,2013-07-02 13:47:00,
2013-07-02 09:52:00,70.7,70.7,30.18,SSW,196,8.0,14.0,100,0.00,,,0.04,meteohub,2013-07-02 13:52:00,
2013-07-02 09:57:00,70.9,70.9,30.18,SSW,193,8.0,16.0,100,0.00,,,0.04,meteohub,2013-07-02 13:57:00,
2013-07-02 10:02:00,70.9,70.9,30.18,SW,224,14.0,16.0,100,0.00,,,0.04,meteohub,2013-07-02 14:02:00,
2013-07-02 10:07:00,70.9,70.9,30.18,SSW,211,9.0,16.0,100,0.00,,,0.04,meteohub,2013-07-02 14:07:00,
2013-07-02 10:12:00,70.9,70.9,30.18,SSW,197,10.0,15.0,100,0.00,,,0.04,meteohub,2013-07-02 14:12:00,
2013-07-02 10:17:00,71.1,71.1,30.18,SSW,203,7.0,15.0,100,0.00,,,0.04,meteohub,2013-07-02 14:17:00,
2013-07-02 10:22:00,71.1,71.1,30.18,SSW,195,11.0,14.0,100,0.00,,,0.04,meteohub,2013-07-02 14:22:00,
2013-07-02 10:27:00,71.1,71.1,30.18,SW,225,8.0,15.0,100,0.00,,,0.04,meteohub,2013-07-02 14:27:00,
2013-07-02 10:32:00,71.1,71.1,30.18,South,184,7.0,15.0,100,0.00,,,0.04,meteohub,2013-07-02 14:32:00,
2013-07-02 10:37:00,71.2,71.2,30.18,SSW,212,9.0,15.0,100,0.00,,,0.04,meteohub,2013-07-02 14:37:00,
2013-07-02 10:42:00,71.2,71.2,30.18,SSW,207,8.0,15.0,100,0.00,,,0.04,meteohub,2013-07-02 14:42:00,
2013-07-02 10:47:00,71.4,71.4,30.19,SSW,212,7.0,15.0,100,0.00,,,0.04,meteohub,2013-07-02 14:47:00,
2013-07-02 10:52:00,71.4,71.4,30.18,SSW,210,9.0,15.0,100,0.00,,,0.04,meteohub,2013-07-02 14:52:00,
2013-07-02 10:57:00,71.4,71.4,30.18,SSW,201,10.0,15.0,100,0.00,,,0.04,meteohub,2013-07-02 14:57:00,
2013-07-02 11:02:00,71.4,71.4,30.18,SW,228,15.0,15.0,100,0.00,,,0.04,meteohub,2013-07-02 15:02:00,
2013-07-02 11:06:00,71.6,71.6,30.19,SW,215,5.0,15.0,100,0.00,,,0.04,meteohub,2013-07-02 15:06:00,
2013-07-02 11:11:00,71.8,71.8,30.19,SW,220,4.0,15.0,100,0.00,,,0.04,meteohub,2013-07-02 15:11:00,
2013-07-02 11:16:00,71.8,71.8,30.19,SW,215,7.0,15.0,100,0.00,,,0.04,meteohub,2013-07-02 15:16:00,
2013-07-02 11:21:00,71.8,71.8,30.19,SSW,193,6.0,14.0,100,0.00,,,0.04,meteohub,2013-07-02 15:21:00,
2013-07-02 11:27:00,71.8,71.8,30.19,SSW,210,8.0,14.0,100,0.00,,,0.04,meteohub,2013-07-02 15:27:00,
2013-07-02 11:32:00,71.8,71.4,30.19,SSW,200,8.0,14.0,99,0.00,,,0.04,meteohub,2013-07-02 15:32:00,
2013-07-02 11:37:00,71.6,71.2,30.19,SSW,208,9.0,14.0,99,0.00,,,0.04,meteohub,2013-07-02 15:37:00,
2013-07-02 11:42:00,71.6,71.6,30.19,WSW,244,10.0,16.0,100,0.00,,,0.04,meteohub,2013-07-02 15:42:00,
2013-07-02 11:47:00,71.8,71.8,30.19,South,190,6.0,16.0,100,0.00,,,0.04,meteohub,2013-07-02 15:47:00,
2013-07-02 11:52:00,72.0,72.0,30.19,SW,222,6.0,16.0,100,0.00,,,0.04,meteohub,2013-07-02 15:52:00,
2013-07-02 11:57:00,72.1,72.1,30.19,SW,228,9.0,13.0,100,0.00,,,0.04,meteohub,2013-07-02 15:57:00,
2013-07-02 12:02:00,72.3,72.0,30.19,SSW,205,9.0,14.0,99,0.00,,,0.04,meteohub,2013-07-02 16:02:00,
2013-07-02 12:07:00,72.5,72.1,30.19,SW,228,13.0,14.0,99,0.00,,,0.04,meteohub,2013-07-02 16:07:00,
2013-07-02 12:12:00,72.5,72.1,30.19,SW,225,9.0,16.0,99,0.00,,,0.04,meteohub,2013-07-02 16:12:00,
2013-07-02 12:17:00,72.3,72.0,30.19,SSW,200,9.0,16.0,99,0.00,,,0.04,meteohub,2013-07-02 16:17:00,
2013-07-02 12:22:00,72.5,72.1,30.20,SW,215,3.0,17.0,99,0.00,,,0.04,meteohub,2013-07-02 16:22:00,
2013-07-02 12:27:00,72.5,72.1,30.19,SW,219,10.0,17.0,99,0.00,,,0.04,meteohub,2013-07-02 16:27:00,
2013-07-02 12:32:00,72.5,72.1,30.20,SW,214,10.0,17.0,99,0.00,,,0.04,meteohub,2013-07-02 16:32:00,
2013-07-02 12:37:00,72.5,72.0,30.19,SW,225,13.0,13.0,98,0.00,,,0.04,meteohub,2013-07-02 16:37:00,
2013-07-02 12:42:00,72.5,72.0,30.19,SSW,195,9.0,16.0,98,0.00,,,0.04,meteohub,2013-07-02 16:42:00,
2013-07-02 12:47:00,72.5,72.0,30.20,SW,219,12.0,16.0,98,0.00,,,0.04,meteohub,2013-07-02 16:47:00,
2013-07-02 12:52:00,72.3,71.8,30.20,SW,232,12.0,16.0,98,0.00,,,0.04,meteohub,2013-07-02 16:52:00,
2013-07-02 12:57:00,72.3,71.8,30.19,SW,220,6.0,15.0,98,0.00,,,0.04,meteohub,2013-07-02 16:57:00,
2013-07-02 13:02:00,72.3,72.0,30.19,WSW,239,5.0,15.0,99,0.00,,,0.04,meteohub,2013-07-02 17:02:00,
2013-07-02 13:07:00,72.5,72.1,30.19,SW,225,5.0,13.0,99,0.00,,,0.04,meteohub,2013-07-02 17:07:00,
2013-07-02 13:12:00,72.5,72.0,30.19,SW,220,7.0,13.0,98,0.00,,,0.04,meteohub,2013-07-02 17:12:00,
2013-07-02 13:17:00,72.3,72.0,30.19,SSW,201,5.0,13.0,99,0.00,,,0.04,meteohub,2013-07-02 17:17:00,
2013-07-02 13:22:00,72.3,71.8,30.19,South,190,5.0,14.0,98,0.00,,,0.04,meteohub,2013-07-02 17:22:00,
2013-07-02 13:27:00,72.3,71.8,30.19,SSW,203,9.0,14.0,98,0.00,,,0.04,meteohub,2013-07-02 17:27:00,
2013-07-02 13:32:00,72.1,71.8,30.19,SW,224,12.0,14.0,99,0.00,,,0.04,meteohub,2013-07-02 17:32:00,
2013-07-02 13:37:00,72.1,71.6,30.19,SSW,200,8.0,13.0,98,0.00,,,0.04,meteohub,2013-07-02 17:37:00,
2013-07-02 13:42:00,72.3,72.0,30.19,SW,222,6.0,13.0,99,0.00,,,0.04,meteohub,2013-07-02 17:42:00,
2013-07-02 13:47:00,72.7,72.1,30.19,SSW,206,7.0,13.0,98,0.00,,,0.04,meteohub,2013-07-02 17:47:00,
2013-07-02 13:52:00,72.9,72.3,30.19,SSW,212,7.0,13.0,98,0.00,,,0.04,meteohub,2013-07-02 17:52:00,
2013-07-02 13:57:00,72.9,72.3,30.19,South,191,5.0,11.0,98,0.00,,,0.04,meteohub,2013-07-02 17:57:00,
2013-07-02 14:02:00,72.9,72.3,30.19,SW,226,8.0,11.0,98,0.00,,,0.04,meteohub,2013-07-02 18:02:00,
2013-07-02 14:07:00,72.9,72.3,30.19,WSW,257,4.0,12.0,98,0.00,,,0.04,meteohub,2013-07-02 18:07:00,
2013-07-02 14:12:00,72.9,72.3,30.19,SW,230,8.0,12.0,98,0.00,,,0.04,meteohub,2013-07-02 18:12:00,
2013-07-02 14:17:00,72.7,72.1,30.18,SSW,193,5.0,12.0,98,0.00,,,0.04,meteohub,2013-07-02 18:17:00,
2013-07-02 14:22:00,72.5,72.0,30.18,SW,224,8.0,11.0,98,0.00,,,0.04,meteohub,2013-07-02 18:22:00,
2013-07-02 14:27:00,72.5,72.0,30.18,SW,228,9.0,12.0,98,0.00,,,0.04,meteohub,2013-07-02 18:27:00,
2013-07-02 14:32:00,72.3,72.0,30.18,SW,224,4.0,12.0,99,0.00,,,0.04,meteohub,2013-07-02 18:32:00,
2013-07-02 14:37:00,72.3,72.0,30.18,South,180,2.0,12.0,99,0.00,,,0.04,meteohub,2013-07-02 18:37:00,
2013-07-02 14:42:00,72.3,71.8,30.18,SSW,207,7.0,12.0,98,0.00,,,0.04,meteohub,2013-07-02 18:42:00,
2013-07-02 14:47:00,72.5,72.1,30.18,South,177,6.0,11.0,99,0.00,,,0.04,meteohub,2013-07-02 18:47:00,
2013-07-02 14:52:00,72.9,72.3,30.17,SSW,204,7.0,11.0,98,0.00,,,0.04,meteohub,2013-07-02 18:52:00,
2013-07-02 14:57:00,73.0,72.5,30.17,South,188,9.0,11.0,98,0.00,,,0.04,meteohub,2013-07-02 18:57:00,
2013-07-02 15:02:00,73.0,72.1,30.17,SSW,194,8.0,11.0,97,0.00,,,0.04,meteohub,2013-07-02 19:02:00,
2013-07-02 15:07:00,73.0,72.1,30.17,SSW,201,6.0,11.0,97,0.00,,,0.04,meteohub,2013-07-02 19:07:00,
2013-07-02 15:12:00,72.9,72.0,30.17,SSW,200,8.0,11.0,97,0.00,,,0.04,meteohub,2013-07-02 19:12:00,
2013-07-02 15:17:00,72.9,72.3,30.17,SSW,211,7.0,13.0,98,0.00,,,0.04,meteohub,2013-07-02 19:17:00,
2013-07-02 15:22:00,73.0,72.5,30.17,SSW,201,5.0,13.0,98,0.00,,,0.04,meteohub,2013-07-02 19:22:00,
2013-07-02 15:27:00,73.2,72.3,30.17,South,176,6.0,13.0,97,0.00,,,0.04,meteohub,2013-07-02 19:27:00,
2013-07-02 15:32:00,73.2,72.3,30.17,South,187,7.0,11.0,97,0.00,,,0.04,meteohub,2013-07-02 19:32:00,
2013-07-02 15:37:00,73.2,72.0,30.17,SSW,198,7.0,10.0,96,0.00,,,0.04,meteohub,2013-07-02 19:37:00,
2013-07-02 15:42:00,73.6,72.7,30.17,SSW,198,9.0,10.0,97,0.00,,,0.04,meteohub,2013-07-02 19:42:00,
2013-07-02 15:47:00,73.6,72.1,30.17,SSW,198,11.0,13.0,95,0.00,,,0.04,meteohub,2013-07-02 19:47:00,
2013-07-02 15:52:00,72.9,71.6,30.17,South,183,8.0,13.0,96,0.00,,,0.04,meteohub,2013-07-02 19:52:00,
2013-07-02 15:57:00,72.1,70.9,30.17,South,190,9.0,13.0,96,0.00,,,0.04,meteohub,2013-07-02 19:57:00,
2013-07-02 16:02:00,71.8,70.9,30.17,SSW,197,9.0,13.0,97,0.00,,,0.04,meteohub,2013-07-02 20:02:00,
2013-07-02 16:07:00,71.4,70.9,30.17,SSW,207,10.0,13.0,98,0.00,,,0.04,meteohub,2013-07-02 20:07:00,
2013-07-02 16:12:00,71.4,70.9,30.17,SSW,207,7.0,13.0,98,0.00,,,0.04,meteohub,2013-07-02 20:12:00,
2013-07-02 16:18:00,71.2,70.9,30.17,SSW,207,7.0,12.0,99,0.00,,,0.04,meteohub,2013-07-02 20:18:00,
2013-07-02 16:23:00,71.2,70.9,30.17,SSW,208,8.0,12.0,99,0.00,,,0.04,meteohub,2013-07-02 20:23:00,
2013-07-02 16:28:00,71.2,70.9,30.17,SW,215,10.0,12.0,99,0.00,,,0.04,meteohub,2013-07-02 20:28:00,
2013-07-02 16:33:00,71.2,70.9,30.17,SW,230,7.0,12.0,99,0.00,,,0.04,meteohub,2013-07-02 20:33:00,
2013-07-02 16:38:00,71.2,70.9,30.17,SSW,195,7.0,14.0,99,0.00,,,0.04,meteohub,2013-07-02 20:38:00,
2013-07-02 16:43:00,71.4,71.1,30.17,SSW,200,8.0,14.0,99,0.00,,,0.04,meteohub,2013-07-02 20:43:00,
2013-07-02 16:48:00,71.6,71.2,30.17,SW,214,6.0,12.0,99,0.00,,,0.04,meteohub,2013-07-02 20:48:00,
2013-07-02 16:53:00,71.6,71.2,30.17,SW,214,10.0,12.0,99,0.00,,,0.04,meteohub,2013-07-02 20:53:00,
2013-07-02 16:58:00,71.6,71.2,30.17,SSW,212,10.0,12.0,99,0.00,,,0.04,meteohub,2013-07-02 20:58:00,
2013-07-02 17:03:00,71.4,71.1,30.17,SW,219,10.0,14.0,99,0.00,,,0.04,meteohub,2013-07-02 21:03:00,
2013-07-02 17:08:00,71.2,71.2,30.17,SW,221,7.0,14.0,100,0.00,,,0.04,meteohub,2013-07-02 21:08:00,
2013-07-02 17:13:00,71.2,71.2,30.17,SW,215,8.0,14.0,100,0.00,,,0.04,meteohub,2013-07-02 21:13:00,
2013-07-02 17:18:00,71.2,71.2,30.17,SW,230,7.0,14.0,100,0.00,,,0.04,meteohub,2013-07-02 21:18:00,
2013-07-02 17:23:00,71.4,71.4,30.17,South,190,6.0,13.0,100,0.00,,,0.04,meteohub,2013-07-02 21:23:00,
2013-07-02 17:28:00,71.4,71.4,30.17,South,191,7.0,13.0,100,0.00,,,0.04,meteohub,2013-07-02 21:28:00,
2013-07-02 17:33:00,71.6,71.6,30.17,SSW,193,3.0,13.0,100,0.00,,,0.04,meteohub,2013-07-02 21:33:00,
2013-07-02 17:38:00,72.0,72.0,30.17,SSW,201,5.0,12.0,100,0.00,,,0.04,meteohub,2013-07-02 21:38:00,
2013-07-02 17:43:00,72.1,71.8,30.17,South,188,6.0,12.0,99,0.00,,,0.04,meteohub,2013-07-02 21:43:00,
2013-07-02 17:48:00,72.3,72.0,30.17,SW,220,7.0,9.0,99,0.00,,,0.04,meteohub,2013-07-02 21:48:00,
2013-07-02 17:53:00,72.3,71.8,30.18,SSW,194,11.0,11.0,98,0.00,,,0.04,meteohub,2013-07-02 21:53:00,
2013-07-02 17:58:00,71.8,71.2,30.18,SW,233,11.0,12.0,98,0.00,,,0.04,meteohub,2013-07-02 21:58:00,
2013-07-02 18:03:00,71.4,71.1,30.18,South,186,7.0,15.0,99,0.00,,,0.04,meteohub,2013-07-02 22:03:00,
2013-07-02 18:08:00,71.1,70.7,30.18,SSW,204,7.0,15.0,99,0.00,,,0.04,meteohub,2013-07-02 22:08:00,
2013-07-02 18:13:00,71.2,70.9,30.18,SW,221,4.0,15.0,99,0.00,,,0.04,meteohub,2013-07-02 22:13:00,
2013-07-02 18:18:00,71.4,71.1,30.19,SW,235,2.0,11.0,99,0.00,,,0.04,meteohub,2013-07-02 22:18:00,
2013-07-02 18:23:00,71.6,71.2,30.19,SW,220,7.0,11.0,99,0.00,,,0.04,meteohub,2013-07-02 22:23:00,
2013-07-02 18:28:00,71.8,71.4,30.19,SW,226,10.0,12.0,99,0.00,,,0.04,meteohub,2013-07-02 22:28:00,
2013-07-02 18:33:00,71.8,71.4,30.19,SW,229,9.0,13.0,99,0.00,,,0.04,meteohub,2013-07-02 22:33:00,
2013-07-02 18:38:00,71.4,71.1,30.19,SSW,207,10.0,14.0,99,0.00,,,0.04,meteohub,2013-07-02 22:38:00,
2013-07-02 18:43:00,71.2,70.9,30.19,SSW,193,7.0,15.0,99,0.00,,,0.04,meteohub,2013-07-02 22:43:00,
2013-07-02 18:48:00,71.1,70.7,30.19,SW,226,9.0,15.0,99,0.00,,,0.04,meteohub,2013-07-02 22:48:00,
2013-07-02 18:53:00,71.1,70.7,30.20,SW,220,8.0,15.0,99,0.00,,,0.04,meteohub,2013-07-02 22:53:00,
2013-07-02 18:58:00,71.1,71.1,30.20,SW,217,5.0,14.0,100,0.00,,,0.04,meteohub,2013-07-02 22:58:00,
2013-07-02 19:03:00,71.1,70.7,30.19,SSW,203,9.0,11.0,99,0.00,,,0.04,meteohub,2013-07-02 23:03:00,
2013-07-02 19:08:00,71.1,70.7,30.20,SSW,212,12.0,12.0,99,0.00,,,0.04,meteohub,2013-07-02 23:08:00,
2013-07-02 19:13:00,70.9,70.5,30.20,SSW,208,13.0,16.0,99,0.00,,,0.04,meteohub,2013-07-02 23:13:00,
2013-07-02 19:18:00,70.9,70.5,30.20,SSW,203,9.0,16.0,99,0.00,,,0.04,meteohub,2013-07-02 23:18:00,
2013-07-02 19:23:00,70.5,70.2,30.20,SSW,211,9.0,17.0,99,0.00,,,0.04,meteohub,2013-07-02 23:23:00,
2013-07-02 19:28:00,70.5,70.5,30.20,SW,224,11.0,17.0,100,0.00,,,0.04,meteohub,2013-07-02 23:28:00,
2013-07-02 19:29:00,70.5,70.2,30.20,SSW,198,9.0,17.0,99,0.00,,,0.04,meteohub,2013-07-02 23:29:00,
2013-07-02 19:34:00,70.5,70.2,30.20,SW,218,13.0,16.0,99,0.00,,,0.04,meteohub,2013-07-02 23:34:00,
2013-07-02 19:39:00,70.5,70.2,30.20,South,183,8.0,16.0,99,0.00,,,0.04,meteohub,2013-07-02 23:39:00,
2013-07-02 19:44:00,70.3,70.0,30.20,SSW,198,9.0,16.0,99,0.00,,,0.04,meteohub,2013-07-02 23:44:00,
2013-07-02 19:49:00,70.3,70.0,30.20,SW,214,10.0,13.0,99,0.00,,,0.04,meteohub,2013-07-02 23:49:00,
2013-07-02 19:54:00,70.3,70.3,30.20,SSW,204,8.0,12.0,100,0.00,,,0.04,meteohub,2013-07-02 23:54:00,
2013-07-02 19:59:00,70.3,70.3,30.20,SSW,207,8.0,12.0,100,0.00,,,0.04,meteohub,2013-07-02 23:59:00,
2013-07-02 20:01:00,70.3,70.3,30.20,SW,219,11.0,12.0,100,0.00,,,0.04,meteohub,2013-07-03 00:01:00,
2013-07-02 20:06:00,70.3,70.3,30.20,SSW,208,13.0,14.0,100,0.00,,,0.04,meteohub,2013-07-03 00:06:00,
2013-07-02 20:11:00,70.3,70.3,30.20,SW,215,14.0,14.0,100,0.00,,,0.04,meteohub,2013-07-03 00:11:00,
2013-07-02 20:16:00,70.5,70.5,30.20,SSW,205,6.0,16.0,100,0.00,,,0.04,meteohub,2013-07-03 00:16:00,
2013-07-02 20:21:00,70.5,70.5,30.20,SSW,198,11.0,16.0,100,0.00,,,0.04,meteohub,2013-07-03 00:21:00,
2013-07-02 20:23:00,70.5,70.5,30.20,SSW,198,8.0,16.0,100,0.00,,,0.04,meteohub,2013-07-03 00:23:00,
2013-07-02 20:24:00,70.5,70.5,30.20,SSW,211,9.0,16.0,100,0.00,,,0.04,meteohub,2013-07-03 00:24:00,
2013-07-02 20:28:00,70.5,70.5,30.20,SW,215,8.0,16.0,100,0.00,,,0.04,meteohub,2013-07-03 00:28:00,
2013-07-02 20:33:00,70.5,70.5,30.20,SSW,205,8.0,15.0,100,0.00,,,0.04,meteohub,2013-07-03 00:33:00,
2013-07-02 20:38:00,70.5,70.5,30.20,SSW,200,11.0,14.0,100,0.00,,,0.04,meteohub,2013-07-03 00:38:00,
2013-07-02 20:43:00,70.5,70.5,30.21,SSW,210,8.0,12.0,100,0.00,,,0.04,meteohub,2013-07-03 00:43:00,
2013-07-02 20:48:00,70.5,70.5,30.21,SSW,203,6.0,12.0,100,0.00,,,0.04,meteohub,2013-07-03 00:48:00,
2013-07-02 20:53:00,70.5,70.5,30.21,SSW,198,7.0,12.0,100,0.00,,,0.04,meteohub,2013-07-03 00:53:00,
2013-07-02 20:58:00,70.5,70.5,30.21,SSW,195,7.0,13.0,100,0.00,,,0.04,meteohub,2013-07-03 00:58:00,
2013-07-02 21:00:00,70.5,70.5,30.21,South,190,5.0,13.0,100,0.00,,,0.04,meteohub,2013-07-03 01:00:00,
2013-07-02 21:03:00,70.5,70.5,30.21,WSW,240,6.0,13.0,100,0.00,,,0.04,meteohub,2013-07-03 01:03:00,
2013-07-02 21:08:00,70.5,70.5,30.21,South,175,8.0,13.0,100,0.00,,,0.04,meteohub,2013-07-03 01:08:00,
2013-07-02 21:10:00,70.3,70.3,30.21,SSW,204,10.0,13.0,100,0.00,,,0.04,meteohub,2013-07-03 01:10:00,
2013-07-02 21:15:00,70.3,70.3,30.21,SSW,198,9.0,11.0,100,0.00,,,0.04,meteohub,2013-07-03 01:15:00,
2013-07-02 21:20:00,70.3,70.3,30.22,SW,214,7.0,11.0,100,0.00,,,0.04,meteohub,2013-07-03 01:20:00,
2013-07-02 21:25:00,70.3,70.3,30.22,SSW,212,7.0,11.0,100,0.00,,,0.04,meteohub,2013-07-03 01:25:00,
2013-07-02 21:26:00,70.3,70.3,30.22,SW,224,6.0,12.0,100,0.00,,,0.04,meteohub,2013-07-03 01:26:00,
2013-07-02 21:31:00,70.5,70.5,30.22,SSW,195,7.0,12.0,100,0.00,,,0.04,meteohub,2013-07-03 01:31:00,
2013-07-02 21:36:00,70.5,70.5,30.23,SW,215,9.0,12.0,100,0.00,,,0.04,meteohub,2013-07-03 01:36:00,
2013-07-02 21:41:00,70.3,70.3,30.23,SSW,212,3.0,12.0,100,0.00,,,0.04,meteohub,2013-07-03 01:41:00,
2013-07-02 21:46:00,70.3,70.3,30.23,SSW,210,6.0,10.0,100,0.00,,,0.04,meteohub,2013-07-03 01:46:00,
2013-07-02 21:50:00,70.3,70.3,30.23,SSW,194,7.0,10.0,100,0.00,,,0.04,meteohub,2013-07-03 01:50:00,
2013-07-02 21:52:00,70.3,70.3,30.23,SSW,194,8.0,10.0,100,0.00,,,0.04,meteohub,2013-07-03 01:52:00,
2013-07-02 21:57:00,70.3,70.3,30.23,SW,217,5.0,10.0,100,0.00,,,0.04,meteohub,2013-07-03 01:57:00,
2013-07-02 22:02:00,70.2,70.2,30.23,SW,221,4.0,10.0,100,0.00,,,0.04,meteohub,2013-07-03 02:02:00,
2013-07-02 22:07:00,70.2,70.2,30.23,SW,217,4.0,10.0,100,0.00,,,0.04,meteohub,2013-07-03 02:07:00,
2013-07-02 22:12:00,70.2,70.2,30.23,WSW,239,2.0,8.0,100,0.00,,,0.04,meteohub,2013-07-03 02:12:00,
2013-07-02 22:17:00,70.2,70.2,30.23,SW,218,4.0,8.0,100,0.00,,,0.04,meteohub,2013-07-03 02:17:00,
2013-07-02 22:22:00,70.2,70.2,30.23,SW,222,6.0,6.0,100,0.00,,,0.04,meteohub,2013-07-03 02:22:00,
2013-07-02 22:27:00,70.2,70.2,30.23,SW,221,5.0,6.0,100,0.00,,,0.04,meteohub,2013-07-03 02:27:00,
2013-07-02 22:32:00,70.2,70.2,30.23,SSW,200,5.0,7.0,100,0.00,,,0.04,meteohub,2013-07-03 02:32:00,
2013-07-02 22:34:00,70.2,70.2,30.23,SW,215,4.0,7.0,100,0.00,,,0.04,meteohub,2013-07-03 02:34:00,
2013-07-02 22:39:00,70.2,70.2,30.22,SW,214,4.0,7.0,100,0.00,,,0.04,meteohub,2013-07-03 02:39:00,
2013-07-02 22:44:00,70.2,70.2,30.23,SW,221,2.0,7.0,100,0.00,,,0.04,meteohub,2013-07-03 02:44:00,
2013-07-02 22:47:00,70.2,70.2,30.22,SW,231,0.0,7.0,100,0.00,,,0.04,meteohub,2013-07-03 02:47:00,
2013-07-02 22:52:00,70.2,70.2,30.22,WSW,243,2.0,5.0,100,0.00,,,0.04,meteohub,2013-07-03 02:52:00,
2013-07-02 22:57:00,70.2,70.2,30.22,SW,224,3.0,5.0,100,0.00,,,0.04,meteohub,2013-07-03 02:57:00,
2013-07-02 23:02:00,70.3,70.3,30.22,SSW,212,3.0,5.0,100,0.00,,,0.04,meteohub,2013-07-03 03:02:00,
2013-07-02 23:07:00,70.2,70.2,30.22,SW,222,3.0,6.0,100,0.00,,,0.04,meteohub,2013-07-03 03:07:00,
2013-07-02 23:12:00,70.3,70.3,30.22,SW,235,0.0,6.0,100,0.00,,,0.04,meteohub,2013-07-03 03:12:00,
2013-07-02 23:17:00,70.3,70.3,30.22,WSW,238,2.0,6.0,100,0.00,,,0.04,meteohub,2013-07-03 03:17:00,
2013-07-02 23:21:00,70.3,70.3,30.22,WSW,239,2.0,6.0,100,0.00,,,0.04,meteohub,2013-07-03 03:21:00,
2013-07-02 23:26:00,70.3,70.3,30.22,SW,232,4.0,7.0,100,0.00,,,0.04,meteohub,2013-07-03 03:26:00,
2013-07-02 23:31:00,70.3,70.3,30.22,South,188,3.0,8.0,100,0.00,,,0.04,meteohub,2013-07-03 03:31:00,
2013-07-02 23:35:00,70.3,70.3,30.22,WSW,248,2.0,8.0,100,0.00,,,0.04,meteohub,2013-07-03 03:35:00,
2013-07-02 23:40:00,70.3,70.3,30.22,SSW,198,5.0,8.0,100,0.00,,,0.04,meteohub,2013-07-03 03:40:00,
2013-07-02 23:45:00,70.3,70.3,30.22,SW,232,4.0,7.0,100,0.00,,,0.04,meteohub,2013-07-03 03:45:00,
2013-07-02 23:49:00,70.2,70.2,30.22,SSW,202,3.0,7.0,100,0.00,,,0.04,meteohub,2013-07-03 03:49:00,
2013-07-02 23:54:00,70.2,70.2,30.21,SW,233,2.0,7.0,100,0.00,,,0.04,meteohub,2013-07-03 03:54:00,
2013-07-02 23:59:00,70.2,70.2,30.21,SW,229,2.0,7.0,100,0.00,,,0.04,meteohub,2013-07-03 03:59:00,